Terminal Aerodrome Forecast
Issued by NWS Sterling, VA

Home | Current Version | Previous Version | Text Only | Print | Product List | Glossary On
Versions: 1 2 3 4 5 6 7 8 9 10 11 12 13 14 15 16 17 18 19 20 21
660
FTUS41 KLWX 251735
TAFIAD
TAF
KIAD 251735Z 2518/2624 14004KT P6SM FEW130 BKN220
     FM260000 15004KT P6SM OVC050
     FM260400 12005KT 3SM BR OVC025
     FM260500 11006KT 2SM BR BKN015
     FM261000 11006KT 2SM BR OVC003
     FM261600 13008KT 3SM BR BKN008
     FM262100 13008KT 3SM BR OVC015=

USA.gov is the U.S. government's official web portal to all federal, state and local government web resources and services.